< < Back
Terminal Aerodrome Forecast


Current Version              Previous Versions:   1  2  3  4  5  6  7  8  9  

Terminal Aerodrome Forecast

702
FTUS42 KGSP 251134
TAFAND
TAF
KAND 251134Z 2512/2612 03003KT P6SM FEW060 BKN250
     FM251500 05006KT P6SM FEW060 BKN250
     FM260000 07011KT P6SM SCT060 BKN250
     FM260600 06005KT P6SM BKN060
     FM260900 06007KT P6SM BKN020=

Latest METAR

739
SAUS70 KWBC 251400 RRC
MTRAND
METAR KAND 251356Z AUTO 11004KT 10SM CLR 30/19 A3011 RMK AO2 SLP183
T03000189


USA.gov is the U.S. government's official web portal to all federal, state and local government web resources and services.